Time;durP1;ratioP1;P1;durP2;ratioP2;P2;SDS_P1;SDS_P2;PMS_P1;PMS_P2;Temp;Humidity;BMP_temperature;BMP_pressure;BME280_temperature;BME280_humidity;BME280_pressure;Samples;Min_cycle;Max_cycle;Signal;HPM_P1;HPM_P2
2021/11/01 00:01:29;;;;;;;;;;;10.60;97.10;;;;;;5067029;28;19918;-83
2021/11/01 00:04:02;;;;;;;;;;;10.70;97.10;;;;;;5064107;28;20385;-86
2021/11/01 00:06:27;;;;;;;;;;;10.60;97.10;;;;;;5061931;28;19912;-86
2021/11/01 00:08:53;;;;;;;;;;;10.60;97.10;;;;;;5064787;28;19919;-84
2021/11/01 00:11:18;;;;;;;;;;;10.60;97.10;;;;;;5064133;28;19917;-86
2021/11/01 00:13:44;;;;;;;;;;;10.60;97.10;;;;;;5036733;28;19913;-86
2021/11/01 00:16:10;;;;;;;;;;;10.60;97.10;;;;;;5055627;28;19920;-84
2021/11/01 00:18:36;;;;;;;;;;;10.60;97.10;;;;;;5063156;28;19999;-81
2021/11/01 00:21:02;;;;;;;;;;;10.50;97.10;;;;;;5063664;28;20365;-88
2021/11/01 00:23:27;;;;;;;;;;;10.60;97.10;;;;;;5063450;28;19936;-85
2021/11/01 00:25:53;;;;;;;;;;;10.50;97.10;;;;;;5062246;28;20284;-86
2021/11/01 00:28:18;;;;;;;;;;;10.50;97.10;;;;;;5051182;28;19930;-87
2021/11/01 00:30:44;;;;;;;;;;;10.50;97.10;;;;;;5059206;28;20373;-86
2021/11/01 00:33:09;;;;;;;;;;;10.50;97.10;;;;;;5057265;28;19931;-83
2021/11/01 00:35:35;;;;;;;;;;;10.40;97.00;;;;;;5059913;28;19977;-86
2021/11/01 00:38:01;;;;;;;;;;;10.40;97.10;;;;;;5063724;28;19958;-86
2021/11/01 00:40:26;;;;;;;;;;;10.40;97.00;;;;;;5071382;28;19916;-84
2021/11/01 00:42:52;;;;;;;;;;;10.40;97.00;;;;;;5066157;28;19919;-85
2021/11/01 00:45:17;;;;;;;;;;;10.40;97.00;;;;;;5063480;28;19928;-83
2021/11/01 00:47:43;;;;;;;;;;;10.40;97.00;;;;;;5054430;28;19999;-86
2021/11/01 00:50:09;;;;;;;;;;;10.40;97.00;;;;;;5068989;28;19988;-86
2021/11/01 00:52:34;;;;;;;;;;;10.40;97.00;;;;;;5095757;28;19924;-84
2021/11/01 00:55:03;;;;;;;;;;;10.40;97.00;;;;;;5096566;28;19927;-86
2021/11/01 00:57:28;;;;;;;;;;;10.30;97.00;;;;;;5095937;28;19912;-87
2021/11/01 00:59:56;;;;;;;;;;;10.30;97.00;;;;;;5095084;28;20036;-88
2021/11/01 01:02:22;;;;;;;;;;;10.30;97.00;;;;;;5095087;28;19919;-86
2021/11/01 01:04:47;;;;;;;;;;;10.30;97.00;;;;;;5094901;28;19912;-86
2021/11/01 01:07:13;;;;;;;;;;;10.30;97.00;;;;;;5093935;28;20276;-86
2021/11/01 01:09:38;;;;;;;;;;;10.30;97.00;;;;;;5095013;28;19923;-86
2021/11/01 01:12:05;;;;;;;;;;;10.30;97.00;;;;;;5094607;28;19912;-85
2021/11/01 01:14:38;;;;;;;;;;;10.20;97.00;;;;;;5094318;28;20369;-86
2021/11/01 01:17:03;;;;;;;;;;;10.20;97.00;;;;;;5095101;28;19923;-85
2021/11/01 01:19:42;;;;;;;;;;;10.20;97.00;;;;;;5093891;28;19916;-87
2021/11/01 01:22:20;;;;;;;;;;;10.20;97.00;;;;;;5094837;28;19912;-85
2021/11/01 01:24:45;;;;;;;;;;;10.20;97.00;;;;;;5087310;28;20360;-84
2021/11/01 01:27:11;;;;;;;;;;;10.20;96.90;;;;;;5094475;28;19918;-87
2021/11/01 01:29:36;;;;;;;;;;;10.20;96.90;;;;;;5076319;28;20364;-88
2021/11/01 01:32:02;;;;;;;;;;;10.10;96.90;;;;;;5094203;28;20422;-88
2021/11/01 01:34:27;;;;;;;;;;;10.10;96.90;;;;;;5093869;28;20330;-85
2021/11/01 01:36:53;;;;;;;;;;;10.10;96.90;;;;;;5093976;28;19931;-86
2021/11/01 01:39:18;;;;;;;;;;;10.10;96.90;;;;;;5094481;28;19949;-87
2021/11/01 01:41:45;;;;;;;;;;;10.10;96.90;;;;;;5093919;28;20019;-84
2021/11/01 01:44:11;;;;;;;;;;;10.10;96.90;;;;;;5093951;28;19912;-86
2021/11/01 01:46:37;;;;;;;;;;;10.00;96.90;;;;;;5093870;28;19912;-86
2021/11/01 01:49:02;;;;;;;;;;;10.00;96.90;;;;;;5075643;28;19939;-87
2021/11/01 01:51:29;;;;;;;;;;;10.00;96.90;;;;;;5094556;28;19973;-86
2021/11/01 01:53:55;;;;;;;;;;;10.00;96.90;;;;;;5094423;28;19912;-88
2021/11/01 01:56:23;;;;;;;;;;;10.00;96.90;;;;;;5076195;28;20333;-86
2021/11/01 01:58:54;;;;;;;;;;;10.00;96.80;;;;;;5093811;28;19916;-86
2021/11/01 02:01:19;;;;;;;;;;;10.00;96.80;;;;;;5075864;28;20380;-86
2021/11/01 02:03:47;;;;;;;;;;;10.00;96.80;;;;;;5093366;28;19912;-87
2021/11/01 02:06:14;;;;;;;;;;;9.90;96.80;;;;;;5093673;28;19913;-86
2021/11/01 02:09:00;;;;;;;;;;;9.90;96.80;;;;;;5093942;28;20002;-86
2021/11/01 02:11:32;;;;;;;;;;;9.90;96.80;;;;;;5091897;28;19912;-86
2021/11/01 02:13:58;;;;;;;;;;;9.90;96.80;;;;;;5093393;28;19919;-82
2021/11/01 02:16:26;;;;;;;;;;;9.90;96.80;;;;;;5093827;28;19924;-88
2021/11/01 02:18:52;;;;;;;;;;;9.90;96.90;;;;;;5077817;28;19919;-85
2021/11/01 02:21:23;;;;;;;;;;;9.90;96.90;;;;;;5098969;28;19913;-85
2021/11/01 02:24:13;;;;;;;;;;;9.90;96.80;;;;;;5098150;28;19912;-85
2021/11/01 02:26:39;;;;;;;;;;;9.90;96.80;;;;;;5098255;28;19916;-85
2021/11/01 02:29:05;;;;;;;;;;;9.80;96.80;;;;;;5097327;28;20002;-84
2021/11/01 02:31:31;;;;;;;;;;;9.90;96.90;;;;;;5097053;28;19927;-85
2021/11/01 02:33:56;;;;;;;;;;;9.80;96.90;;;;;;5097215;28;19912;-83
2021/11/01 02:36:22;;;;;;;;;;;9.90;96.90;;;;;;5096947;28;19920;-86
2021/11/01 02:38:50;;;;;;;;;;;9.80;96.90;;;;;;5097328;28;20011;-84
2021/11/01 02:41:24;;;;;;;;;;;9.80;96.90;;;;;;5096666;28;20361;-86
2021/11/01 02:43:53;;;;;;;;;;;9.90;97.00;;;;;;5097566;28;19922;-86
2021/11/01 02:46:19;;;;;;;;;;;9.80;97.20;;;;;;5097103;28;19952;-86
2021/11/01 02:48:48;;;;;;;;;;;9.80;96.90;;;;;;5096930;28;19962;-81
2021/11/01 02:51:15;;;;;;;;;;;9.80;97.20;;;;;;5096570;28;19993;-82
2021/11/01 02:53:42;;;;;;;;;;;9.80;96.90;;;;;;5096760;28;19919;-80
2021/11/01 02:56:09;;;;;;;;;;;9.80;96.90;;;;;;5096232;28;19920;-83
2021/11/01 02:58:35;;;;;;;;;;;9.80;97.00;;;;;;5096628;28;20013;-85
2021/11/01 03:01:02;;;;;;;;;;;9.80;97.00;;;;;;5095941;28;19912;-83
2021/11/01 03:03:28;;;;;;;;;;;9.80;96.90;;;;;;5088851;28;19913;-83
2021/11/01 03:05:53;;;;;;;;;;;9.80;96.90;;;;;;5096770;28;19919;-83
2021/11/01 03:08:19;;;;;;;;;;;9.80;96.90;;;;;;5078229;28;19964;-84
2021/11/01 03:10:51;;;;;;;;;;;9.80;97.20;;;;;;5418065;22;19924;-81
2021/11/01 03:13:18;;;;;;;;;;;9.80;96.90;;;;;;5032608;28;20328;-80
2021/11/01 03:15:43;;;;;;;;;;;9.80;96.90;;;;;;5029789;28;20365;-80
2021/11/01 03:18:09;;;;;;;;;;;9.80;96.90;;;;;;5028150;28;19920;-82
2021/11/01 03:20:40;;;;;;;;;;;9.80;96.90;;;;;;5035958;28;19913;-85
2021/11/01 03:23:07;;;;;;;;;;;9.80;97.00;;;;;;5028370;28;19920;-83
2021/11/01 03:25:36;;;;;;;;;;;9.80;97.00;;;;;;5027180;28;19936;-83
2021/11/01 03:28:07;;;;;;;;;;;9.80;96.90;;;;;;5035762;28;19920;-84
2021/11/01 03:30:32;;;;;;;;;;;9.80;97.00;;;;;;5024511;28;19928;-83
2021/11/01 03:32:58;;;;;;;;;;;9.80;97.00;;;;;;5030586;28;19913;-85
2021/11/01 03:35:25;;;;;;;;;;;9.70;96.90;;;;;;5027377;28;20357;-83
2021/11/01 03:37:53;;;;;;;;;;;9.80;97.00;;;;;;5030552;28;20009;-83
2021/11/01 03:40:20;;;;;;;;;;;9.70;97.00;;;;;;5032347;28;20324;-83
2021/11/01 03:42:52;;;;;;;;;;;9.80;97.00;;;;;;5028334;28;19955;-83
2021/11/01 03:45:18;;;;;;;;;;;9.80;97.00;;;;;;5027293;28;20365;-82
2021/11/01 03:47:47;;;;;;;;;;;9.70;97.00;;;;;;5035164;28;20407;-82
2021/11/01 03:52:51;;;;;;;;;;;9.70;97.00;;;;;;5022902;28;19913;-84
2021/11/01 03:55:18;;;;;;;;;;;9.70;97.00;;;;;;5031148;28;19921;-84
2021/11/01 03:57:44;;;;;;;;;;;9.70;97.00;;;;;;5027698;28;20003;-83
2021/11/01 04:00:10;;;;;;;;;;;9.70;97.00;;;;;;5027272;28;19913;-83
2021/11/01 04:02:35;;;;;;;;;;;9.70;97.00;;;;;;5034868;28;19996;-84
2021/11/01 04:05:01;;;;;;;;;;;9.70;97.00;;;;;;5035160;28;19967;-83
2021/11/01 04:07:28;;;;;;;;;;;9.70;96.90;;;;;;5026853;28;20023;-82
2021/11/01 04:09:54;;;;;;;;;;;9.70;96.90;;;;;;5034386;28;19920;-83
2021/11/01 04:12:20;;;;;;;;;;;9.70;96.90;;;;;;5032508;28;19921;-84
2021/11/01 04:14:49;;;;;;;;;;;9.70;96.90;;;;;;5046666;28;19963;-83
2021/11/01 04:17:26;;;;;;;;;;;9.70;96.90;;;;;;5054565;28;19942;-86
2021/11/01 04:22:37;;;;;;;;;;;9.70;97.00;;;;;;5052930;28;20272;-82
2021/11/01 04:25:04;;;;;;;;;;;9.70;97.00;;;;;;5053979;28;20396;-82
2021/11/01 04:27:29;;;;;;;;;;;9.60;96.90;;;;;;5046879;28;20368;-83
2021/11/01 04:29:55;;;;;;;;;;;9.70;97.00;;;;;;5054459;28;19954;-81
2021/11/01 04:32:38;;;;;;;;;;;9.70;97.00;;;;;;5054211;28;19912;-81
2021/11/01 04:35:33;;;;;;;;;;;9.70;97.00;;;;;;5042986;28;20023;-83
2021/11/01 04:38:07;;;;;;;;;;;9.80;97.00;;;;;;5054031;28;19913;-83
2021/11/01 04:40:56;;;;;;;;;;;9.80;96.90;;;;;;5054258;28;20345;-83
2021/11/01 04:54:18;;;;;;;;;;;9.80;97.00;;;;;;5040435;28;19920;-81
2021/11/01 04:56:44;;;;;;;;;;;9.70;97.00;;;;;;5045260;28;19925;-82
2021/11/01 04:59:10;;;;;;;;;;;9.70;96.90;;;;;;5053638;28;20378;-81
2021/11/01 05:01:39;;;;;;;;;;;9.70;97.00;;;;;;5053408;28;19919;-81
2021/11/01 05:04:11;;;;;;;;;;;9.70;97.00;;;;;;5038142;28;19917;-82
2021/11/01 05:06:42;;;;;;;;;;;9.70;97.00;;;;;;5045990;28;19913;-82
2021/11/01 05:09:12;;;;;;;;;;;9.70;97.00;;;;;;5049337;28;19936;-83
2021/11/01 05:11:47;;;;;;;;;;;9.70;97.00;;;;;;5032372;28;19921;-81
2021/11/01 05:14:15;;;;;;;;;;;9.70;97.00;;;;;;5035769;28;20407;-81
2021/11/01 05:21:47;;;;;;;;;;;9.70;97.00;;;;;;5053146;28;19912;-83
2021/11/01 05:24:21;;;;;;;;;;;9.70;97.00;;;;;;5049443;28;19948;-83
2021/11/01 05:29:29;;;;;;;;;;;9.70;97.00;;;;;;5053491;28;19913;-81
2021/11/01 05:32:05;;;;;;;;;;;9.70;97.00;;;;;;5018367;28;20353;-83
2021/11/01 05:34:30;;;;;;;;;;;9.70;97.00;;;;;;5047891;28;19913;-83
2021/11/01 05:36:55;;;;;;;;;;;9.70;97.00;;;;;;5051091;28;20011;-82
2021/11/01 05:39:21;;;;;;;;;;;9.70;97.00;;;;;;5046460;28;19912;-82
2021/11/01 05:41:46;;;;;;;;;;;9.70;97.00;;;;;;5045151;28;20253;-82
2021/11/01 05:44:12;;;;;;;;;;;9.60;97.00;;;;;;5035283;28;19964;-82
2021/11/01 05:46:42;;;;;;;;;;;9.60;97.00;;;;;;5047998;28;19913;-82
2021/11/01 05:49:08;;;;;;;;;;;9.60;97.00;;;;;;5052488;28;19916;-80
2021/11/01 05:51:34;;;;;;;;;;;9.60;97.00;;;;;;5051896;28;20359;-82
2021/11/01 05:54:04;;;;;;;;;;;9.60;97.00;;;;;;5044343;28;20260;-79
2021/11/01 05:56:35;;;;;;;;;;;9.60;97.00;;;;;;5031220;28;20384;-78
2021/11/01 06:04:15;;;;;;;;;;;9.60;97.00;;;;;;5042503;28;20052;-81
2021/11/01 06:09:19;;;;;;;;;;;9.60;97.00;;;;;;5052831;28;20011;-83
2021/11/01 06:14:29;;;;;;;;;;;9.60;97.00;;;;;;5037809;28;20339;-80
2021/11/01 06:16:55;;;;;;;;;;;9.60;97.00;;;;;;5034899;28;19925;-86
2021/11/01 06:19:20;;;;;;;;;;;9.60;97.00;;;;;;5044337;28;19912;-80
2021/11/01 06:21:48;;;;;;;;;;;9.60;97.00;;;;;;5052533;28;19916;-81
2021/11/01 06:26:48;;;;;;;;;;;9.70;97.00;;;;;;5044614;28;19913;-80
2021/11/01 06:29:17;;;;;;;;;;;9.70;97.00;;;;;;5051980;28;19966;-81
2021/11/01 06:31:57;;;;;;;;;;;9.70;97.00;;;;;;5052434;28;20304;-83
2021/11/01 06:45:45;;;;;;;;;;;10.00;96.90;;;;;;4932822;29;20025;-80
2021/11/01 06:51:11;;;;;;;;;;;10.10;96.90;;;;;;4933500;29;20319;-78
2021/11/01 06:56:34;;;;;;;;;;;10.20;97.00;;;;;;4929469;29;20381;-81
2021/11/01 07:18:27;;;;;;;;;;;10.20;97.00;;;;;;5047843;28;20004;-79
2021/11/01 07:21:00;;;;;;;;;;;10.20;97.10;;;;;;5041923;28;20383;-80
2021/11/01 08:38:54;;;;;;;;;;;11.10;97.00;;;;;;5046461;28;19920;-75
2021/11/01 08:49:50;;;;;;;;;;;11.20;97.00;;;;;;5054329;28;19919;-77
2021/11/01 09:03:22;;;;;;;;;;;11.40;96.90;;;;;;5051068;28;19923;-77
2021/11/01 09:27:08;;;;;;;;;;;11.50;96.90;;;;;;5033786;28;20376;-78
2021/11/01 09:29:50;;;;;;;;;;;11.60;96.90;;;;;;5033610;28;19913;-77
2021/11/01 09:43:07;;;;;;;;;;;11.70;96.80;;;;;;5050865;28;19962;-78
2021/11/01 09:45:35;;;;;;;;;;;11.70;96.80;;;;;;5045071;28;19913;-79
2021/11/01 09:48:01;;;;;;;;;;;11.70;96.90;;;;;;5052696;28;20269;-77
2021/11/01 09:50:27;;;;;;;;;;;11.70;96.90;;;;;;5052869;28;19942;-77
2021/11/01 09:53:00;;;;;;;;;;;11.70;96.90;;;;;;5044875;28;19909;-77
2021/11/01 10:00:49;;;;;;;;;;;11.90;97.00;;;;;;5048819;28;19936;-77
2021/11/01 10:03:14;;;;;;;;;;;12.00;97.00;;;;;;5052168;28;20356;-77
2021/11/01 10:05:44;;;;;;;;;;;12.00;97.00;;;;;;5047393;28;20399;-78
2021/11/01 10:08:17;;;;;;;;;;;12.10;97.00;;;;;;5049585;28;20260;-77
2021/11/01 10:10:42;;;;;;;;;;;12.00;96.90;;;;;;5048778;28;19913;-78
2021/11/01 10:13:12;;;;;;;;;;;11.90;96.90;;;;;;5036707;28;19928;-78
2021/11/01 10:18:21;;;;;;;;;;;11.80;97.00;;;;;;5052111;28;20002;-76
2021/11/01 10:20:51;;;;;;;;;;;11.90;97.20;;;;;;5044692;28;20368;-76
2021/11/01 10:23:22;;;;;;;;;;;12.10;97.20;;;;;;5052188;28;19912;-77
2021/11/01 10:25:48;;;;;;;;;;;12.10;97.10;;;;;;5052400;28;19913;-77
2021/11/01 10:28:14;;;;;;;;;;;12.10;97.00;;;;;;5043820;28;19913;-78
2021/11/01 10:30:47;;;;;;;;;;;12.10;97.00;;;;;;5026537;28;20016;-77
2021/11/01 10:33:12;;;;;;;;;;;12.20;97.00;;;;;;5025806;28;20428;-77
2021/11/01 10:35:43;;;;;;;;;;;12.30;97.10;;;;;;5044108;28;20031;-79
2021/11/01 10:38:20;;;;;;;;;;;12.40;97.10;;;;;;5052517;28;19999;-80
2021/11/01 10:41:14;;;;;;;;;;;12.60;97.10;;;;;;5036025;28;19913;-79
2021/11/01 10:43:47;;;;;;;;;;;12.70;97.00;;;;;;5046750;28;19925;-80
2021/11/01 11:13:19;;;;;;;;;;;12.50;97.10;;;;;;5048445;28;19925;-82
2021/11/01 11:15:50;;;;;;;;;;;12.40;97.10;;;;;;5054722;28;19967;-82
2021/11/01 11:26:17;;;;;;;;;;;12.30;97.20;;;;;;5046531;28;20380;-82
2021/11/01 11:40:06;;;;;;;;;;;12.90;97.20;;;;;;5049014;28;19987;-80
2021/11/01 11:43:03;;;;;;;;;;;12.90;97.00;;;;;;5046520;28;19913;-81
2021/11/01 11:48:22;;;;;;;;;;;13.10;96.90;;;;;;5054520;28;20426;-81
2021/11/01 11:50:50;;;;;;;;;;;13.10;96.90;;;;;;5054464;28;20333;-81
2021/11/01 11:53:16;;;;;;;;;;;13.00;96.90;;;;;;5046399;28;19939;-81
2021/11/01 11:55:43;;;;;;;;;;;13.10;97.00;;;;;;5046862;28;19917;-80
2021/11/01 11:58:10;;;;;;;;;;;13.10;96.90;;;;;;5047537;28;19917;-78
2021/11/01 12:00:36;;;;;;;;;;;13.10;96.90;;;;;;5054389;28;20319;-80
2021/11/01 12:03:15;;;;;;;;;;;13.10;96.90;;;;;;5054814;28;19919;-78
2021/11/01 12:05:46;;;;;;;;;;;13.20;97.00;;;;;;5046388;28;19917;-79
2021/11/01 12:08:31;;;;;;;;;;;13.10;96.80;;;;;;5054257;28;20331;-81
2021/11/01 12:19:02;;;;;;;;;;;13.30;97.10;;;;;;5046140;28;19960;-81
2021/11/01 12:21:27;;;;;;;;;;;13.50;97.00;;;;;;5054505;28;19959;-81
2021/11/01 12:23:53;;;;;;;;;;;13.70;96.90;;;;;;5053467;28;19924;-81
2021/11/01 12:26:20;;;;;;;;;;;13.80;96.90;;;;;;5050468;28;20004;-81
2021/11/01 12:28:53;;;;;;;;;;;14.00;96.80;;;;;;5050601;28;19913;-79
2021/11/01 12:31:19;;;;;;;;;;;14.10;96.80;;;;;;5038703;28;19913;-79
2021/11/01 12:33:52;;;;;;;;;;;14.20;96.70;;;;;;5047729;28;20361;-80
2021/11/01 12:36:34;;;;;;;;;;;14.30;96.60;;;;;;5027659;28;19929;-79
2021/11/01 12:39:20;;;;;;;;;;;14.20;96.30;;;;;;5054049;28;19920;-79
2021/11/01 12:42:46;;;;;;;;;;;14.10;96.20;;;;;;5047690;28;20383;-81
2021/11/01 12:48:12;;;;;;;;;;;14.30;96.40;;;;;;5043074;28;20312;-81
2021/11/01 12:58:53;;;;;;;;;;;14.40;96.00;;;;;;5039306;28;19920;-81
2021/11/01 13:01:21;;;;;;;;;;;14.40;96.10;;;;;;5053191;28;21289;-80
2021/11/01 13:03:56;;;;;;;;;;;14.40;96.10;;;;;;5044421;28;19927;-82
2021/11/01 13:09:18;;;;;;;;;;;13.90;96.00;;;;;;5039490;28;19919;-79
2021/11/01 13:12:01;;;;;;;;;;;14.00;96.60;;;;;;5044927;28;19927;-78
2021/11/01 13:14:55;;;;;;;;;;;14.20;96.50;;;;;;5046140;28;20269;-81
2021/11/01 13:20:35;;;;;;;;;;;14.60;95.90;;;;;;4987807;28;19914;-80
2021/11/01 13:23:01;;;;;;;;;;;14.70;95.80;;;;;;4992156;28;19914;-82
2021/11/01 13:25:49;;;;;;;;;;;14.70;95.60;;;;;;4992054;28;19920;-83
2021/11/01 13:36:45;;;;;;;;;;;14.50;95.70;;;;;;4991758;28;19922;-82
2021/11/01 13:39:12;;;;;;;;;;;14.40;95.50;;;;;;4992037;28;19914;-81
2021/11/01 13:41:45;;;;;;;;;;;14.30;95.70;;;;;;4991908;28;19918;-80
2021/11/01 13:44:12;;;;;;;;;;;14.30;95.80;;;;;;4991863;28;19946;-80
2021/11/01 13:46:43;;;;;;;;;;;14.30;95.60;;;;;;4992134;28;19992;-80
2021/11/01 13:49:08;;;;;;;;;;;14.20;95.80;;;;;;4991190;28;19921;-77
2021/11/01 13:51:34;;;;;;;;;;;14.10;95.90;;;;;;5019923;28;19913;-82
2021/11/01 13:56:54;;;;;;;;;;;14.00;95.90;;;;;;5051810;28;19921;-81
2021/11/01 14:29:03;;;;;;;;;;;13.30;96.30;;;;;;4968490;28;20365;-82
2021/11/01 14:34:36;;;;;;;;;;;13.20;96.40;;;;;;4968305;28;19954;-82
2021/11/01 14:54:53;;;;;;;;;;;13.20;96.40;;;;;;4967438;28;19922;-82
2021/11/01 15:05:43;;;;;;;;;;;13.10;96.50;;;;;;5045546;28;19920;-83
2021/11/01 15:07:49;;;;;;;;;;;13.20;96.50;;;;;;5054320;28;20313;-81
2021/11/01 15:21:02;;;;;;;;;;;12.90;96.50;;;;;;4936576;29;19973;-81
2021/11/01 15:23:43;;;;;;;;;;;12.70;96.50;;;;;;4935940;29;20046;-82
2021/11/01 15:29:19;;;;;;;;;;;12.60;96.50;;;;;;4923257;29;20283;-82
2021/11/01 15:34:46;;;;;;;;;;;12.50;96.50;;;;;;4935550;29;19938;-80
2021/11/01 16:15:12;;;;;;;;;;;12.20;96.50;;;;;;4934671;29;19926;-80
2021/11/01 16:19:05;;;;;;;;;;;12.10;96.40;;;;;;4975175;28;20363;-79
2021/11/01 16:21:31;;;;;;;;;;;12.10;96.40;;;;;;4962436;28;19949;-81
2021/11/01 16:23:57;;;;;;;;;;;12.10;96.40;;;;;;4962591;28;19916;-81
2021/11/01 16:26:25;;;;;;;;;;;12.00;96.40;;;;;;4955097;28;19962;-82
2021/11/01 16:29:01;;;;;;;;;;;11.90;96.40;;;;;;4955706;28;19966;-84
2021/11/01 16:34:18;;;;;;;;;;;11.90;96.40;;;;;;4956083;28;19941;-82
2021/11/01 16:39:07;;;;;;;;;;;11.80;96.40;;;;;;4954635;28;20001;-80
2021/11/01 16:41:33;;;;;;;;;;;11.70;96.40;;;;;;4954476;28;19915;-79
2021/11/01 16:44:03;;;;;;;;;;;11.60;96.40;;;;;;4954986;28;19917;-79
2021/11/01 16:46:28;;;;;;;;;;;11.60;96.40;;;;;;4954510;28;19918;-83
2021/11/01 16:48:56;;;;;;;;;;;11.60;96.40;;;;;;4969557;28;20275;-81
2021/11/01 16:51:22;;;;;;;;;;;11.60;96.30;;;;;;4954374;28;19915;-80
2021/11/01 16:53:49;;;;;;;;;;;11.60;96.30;;;;;;4961042;28;19914;-79
2021/11/01 16:56:35;;;;;;;;;;;11.70;96.40;;;;;;5013338;28;19975;-81
2021/11/01 16:59:11;;;;;;;;;;;11.70;96.40;;;;;;5013288;28;19909;-80
2021/11/01 17:01:38;;;;;;;;;;;11.70;96.40;;;;;;5008697;28;19945;-80
2021/11/01 17:04:08;;;;;;;;;;;11.80;96.30;;;;;;5013021;28;20415;-91
2021/11/01 17:25:08;;;;;;;;;;;10.10;97.30;;;;;;5049299;28;20372;-89
2021/11/01 17:36:22;;;;;;;;;;;9.80;97.50;;;;;;5035461;28;19928;-91
2021/11/01 18:24:28;;;;;;;;;;;9.80;97.60;;;;;;5047023;28;20376;-94
2021/11/01 18:37:20;;;;;;;;;;;10.00;97.30;;;;;;5040164;28;19947;-87
2021/11/01 18:40:00;;;;;;;;;;;9.90;97.30;;;;;;5053546;28;19916;-93
2021/11/01 18:52:51;;;;;;;;;;;9.80;97.50;;;;;;5046818;28;19935;-90
2021/11/01 18:55:17;;;;;;;;;;;9.80;97.50;;;;;;5054012;28;19919;-87
2021/11/01 18:57:44;;;;;;;;;;;9.80;97.50;;;;;;5051218;28;19916;-91
2021/11/01 19:00:10;;;;;;;;;;;9.70;97.50;;;;;;5044966;28;19924;-89
2021/11/01 19:02:44;;;;;;;;;;;9.70;97.50;;;;;;5056246;28;20280;-86
2021/11/01 19:05:46;;;;;;;;;;;9.70;97.50;;;;;;5048917;28;20008;-86
2021/11/01 19:08:16;;;;;;;;;;;9.60;97.40;;;;;;5041506;28;19913;-86
2021/11/01 20:03:03;;;;;;;;;;;9.10;97.20;;;;;;5040919;28;19970;-83
2021/11/01 20:05:26;;;;;;;;;;;9.00;97.20;;;;;;5045307;28;19947;-82
2021/11/01 20:11:04;;;;;;;;;;;9.00;97.10;;;;;;5035347;28;19913;-84
2021/11/01 21:24:54;;;;;;;;;;;8.30;96.80;;;;;;5037890;28;19994;-84
2021/11/01 21:27:23;;;;;;;;;;;8.30;96.80;;;;;;5046002;28;20011;-82
2021/11/01 21:29:49;;;;;;;;;;;8.20;96.80;;;;;;5037649;28;20284;-82
2021/11/01 21:32:15;;;;;;;;;;;8.20;96.90;;;;;;5053513;28;19919;-84
2021/11/01 21:34:55;;;;;;;;;;;8.20;97.00;;;;;;5045093;28;20980;-85
2021/11/01 21:37:20;;;;;;;;;;;8.20;97.00;;;;;;5040584;28;19928;-82
2021/11/01 21:39:46;;;;;;;;;;;8.20;96.90;;;;;;5045321;28;19912;-84
2021/11/01 21:42:11;;;;;;;;;;;8.20;96.90;;;;;;5047834;28;19913;-83
2021/11/01 21:44:39;;;;;;;;;;;8.20;97.00;;;;;;5043228;28;19975;-83
2021/11/01 21:47:04;;;;;;;;;;;8.30;97.00;;;;;;5053300;28;20302;-84
2021/11/01 21:49:30;;;;;;;;;;;8.30;96.90;;;;;;5052113;28;19913;-82
2021/11/01 21:51:56;;;;;;;;;;;8.30;96.90;;;;;;5045547;28;20295;-83
2021/11/01 21:54:33;;;;;;;;;;;8.30;96.90;;;;;;5044263;28;20008;-83
2021/11/01 21:57:04;;;;;;;;;;;8.30;96.90;;;;;;5038185;28;19921;-83
2021/11/01 22:24:06;;;;;;;;;;;8.30;96.90;;;;;;5049266;28;19912;-82
2021/11/01 22:34:48;;;;;;;;;;;8.30;97.00;;;;;;5034624;28;20004;-83
2021/11/01 22:40:10;;;;;;;;;;;8.40;96.90;;;;;;5055195;28;20337;-83
2021/11/01 22:42:47;;;;;;;;;;;8.40;96.90;;;;;;5052107;28;19963;-84
2021/11/01 22:56:00;;;;;;;;;;;8.30;96.80;;;;;;5056597;28;19923;-82
2021/11/01 22:58:26;;;;;;;;;;;8.30;96.80;;;;;;5022097;28;20266;-83
2021/11/01 23:01:01;;;;;;;;;;;8.20;96.70;;;;;;5047759;28;19920;-82
2021/11/01 23:33:34;;;;;;;;;;;8.20;96.90;;;;;;4967614;28;19922;-83
2021/11/01 23:36:00;;;;;;;;;;;8.20;96.90;;;;;;4960364;28;19922;-83
2021/11/01 23:38:25;;;;;;;;;;;8.20;96.90;;;;;;5046876;28;19953;-84
2021/11/01 23:40:51;;;;;;;;;;;8.20;96.90;;;;;;5051639;28;20064;-84
2021/11/01 23:43:17;;;;;;;;;;;8.20;96.90;;;;;;5044949;28;19913;-84
2021/11/01 23:45:43;;;;;;;;;;;8.20;96.90;;;;;;5052630;28;19920;-82
2021/11/01 23:48:09;;;;;;;;;;;8.20;96.90;;;;;;5046788;28;19971;-83
2021/11/01 23:50:34;;;;;;;;;;;8.20;96.90;;;;;;5049919;28;19917;-83
2021/11/01 23:53:09;;;;;;;;;;;8.20;96.90;;;;;;5055105;28;20480;-84
2021/11/01 23:55:34;;;;;;;;;;;8.20;96.90;;;;;;5055116;28;19939;-81
2021/11/01 23:58:02;;;;;;;;;;;8.20;96.90;;;;;;5028790;28;19917;-83
